Blackwell, OK

3:13 PM CDT on September 21, 2017 (GMT -0500)
Blackwell

Weather History for KBKN - March, 2013

Change the Weather History Date:

Monday, March 4, 2013

  Actual Average (KPNC) Record (KPNC)
Temperature  
Mean Temperature 50 °F -  
Max Temperature 60 °F 58 °F 82 °F (1955)
Min Temperature 39 °F 31 °F 1 °F (2014)
Degree Days  
Heating Degree Days 16    
Moisture  
Dew Point 37 °F    
Average Humidity 69    
Maximum Humidity 87    
Minimum Humidity 48    
Precipitation  
Precipitation 0.00 in - - ()
Sea Level Pressure  
Sea Level Pressure 29.67 in    
Wind  
Wind Speed 13 mph (North)    
Max Wind Speed 32 mph    
Max Gust Speed 44 mph    
Visibility 10 miles    
Events Rain    
Averages and records for this station are not official NWS values.
T = Trace of Precipitation, MM = Missing Value Source: NWS Daily Summary

Daily Weather History Graph

Daily Weather History Graph

Search for Another Location

Airport or City:

Trip Planner

Search our weather history database for the weather conditions in past years. The results will help you decide how hot, cold, wet, or windy it might be!

Date:

Astronomy

Mar. 04, 2013 Rise Set
Actual Time 6:55 AM CST 6:26 PM CST
Civil Twilight 6:29 AM CST 6:52 PM CST
Nautical Twilight 5:59 AM CST 7:22 PM CST
Astronomical Twilight 5:29 AM CST 7:52 PM CST
Moon 1:00 AM CST (3/4) 11:16 AM CST (3/4)
Length of Visible Light 12h 23m
Length of Day
11h 31m
Waning Gibbous, 52% of the Moon is Illuminated
Mar 4
Waning Gibbous
Mar 4
Last Quarter
Mar 11
New
Mar 19
First Quarter
Mar 27
Full

Hourly Weather History & Observations

Time (CST) Temp. Windchill Dew Point Humidity Pressure Visibility Wind Dir Wind Speed Gust Speed Precip Events Conditions
12:15 AM 48.2 °F - 35.6 °F 62% 29.57 in 10.0 mi ESE 6.9 mph - N/A   Clear
12:35 AM 46.4 °F 42.9 °F 33.8 °F 62% 29.56 in 10.0 mi ESE 6.9 mph - N/A   Clear
12:55 AM 46.4 °F 42.9 °F 33.8 °F 62% 29.56 in 10.0 mi East 6.9 mph - N/A   Partly Cloudy
1:15 AM 46.4 °F 41.9 °F 35.6 °F 66% 29.56 in 10.0 mi East 9.2 mph - N/A   Partly Cloudy
1:35 AM 44.6 °F 40.2 °F 35.6 °F 71% 29.56 in 10.0 mi ESE 8.1 mph - N/A   Clear
1:55 AM 44.6 °F 39.7 °F 35.6 °F 71% 29.55 in 10.0 mi East 9.2 mph - N/A   Clear
2:15 AM 44.6 °F 40.2 °F 35.6 °F 71% 29.55 in 10.0 mi East 8.1 mph - N/A   Clear
2:35 AM 44.6 °F 39.7 °F 35.6 °F 71% 29.53 in 10.0 mi ESE 9.2 mph - N/A   Clear
3:15 AM 46.4 °F 41.5 °F 35.6 °F 66% 29.53 in 10.0 mi ESE 10.4 mph - N/A   Clear
3:35 AM 46.4 °F 43.5 °F 35.6 °F 66% 29.53 in 10.0 mi ESE 5.8 mph - N/A   Clear
3:55 AM 44.6 °F 41.4 °F 33.8 °F 66% 29.52 in 10.0 mi ENE 5.8 mph - N/A   Clear
4:15 AM 42.8 °F 37.5 °F 33.8 °F 70% 29.52 in 10.0 mi East 9.2 mph - N/A   Clear
4:55 AM 42.8 °F 38.6 °F 33.8 °F 70% 29.52 in 10.0 mi ENE 6.9 mph - N/A   Clear
5:15 AM 41.0 °F 35.2 °F 33.8 °F 76% 29.53 in 10.0 mi NE 9.2 mph - N/A   Clear
5:35 AM 39.2 °F 34.2 °F 33.8 °F 81% 29.52 in 10.0 mi ENE 6.9 mph - N/A   Clear
6:15 AM 39.2 °F 34.2 °F 33.8 °F 81% 29.53 in 10.0 mi NE 6.9 mph - N/A   Clear
6:35 AM 39.2 °F 33.6 °F 33.8 °F 81% 29.54 in 10.0 mi NNE 8.1 mph - N/A   Clear
6:55 AM 39.2 °F 33.0 °F 33.8 °F 81% 29.55 in 10.0 mi NNE 9.2 mph - N/A   Clear
7:15 AM 39.2 °F 33.6 °F 33.8 °F 81% 29.56 in 10.0 mi NNE 8.1 mph - N/A   Clear
7:35 AM 39.2 °F 33.6 °F 33.8 °F 81% 29.56 in 10.0 mi NNE 8.1 mph - N/A   Clear
7:55 AM 39.2 °F 33.0 °F 35.6 °F 87% 29.57 in 10.0 mi North 9.2 mph - N/A   Clear
8:15 AM 41.0 °F 35.2 °F 35.6 °F 81% 29.58 in 10.0 mi North 9.2 mph - N/A   Clear
8:35 AM 44.6 °F 40.7 °F 37.4 °F 76% 29.59 in 10.0 mi North 6.9 mph - N/A   Clear
8:55 AM 46.4 °F 42.4 °F 37.4 °F 71% 29.59 in 10.0 mi NNE 8.1 mph - N/A   Clear
9:15 AM 48.2 °F - 39.2 °F 71% 29.60 in 10.0 mi NNW 10.4 mph - N/A   Clear
9:35 AM 50.0 °F - 39.2 °F 66% 29.60 in 10.0 mi North 10.4 mph - N/A   Clear
9:55 AM 50.0 °F - 39.2 °F 66% 29.60 in 10.0 mi North 10.4 mph - N/A   Clear
10:15 AM 53.6 °F - 39.2 °F 58% 29.61 in 10.0 mi North 12.7 mph - N/A   Clear
10:35 AM 53.6 °F - 41.0 °F 62% 29.61 in 10.0 mi NNW 11.5 mph - N/A   Clear
10:55 AM 55.4 °F - 41.0 °F 58% 29.61 in 10.0 mi North 11.5 mph - N/A   Clear
11:15 AM 57.2 °F - 41.0 °F 55% 29.62 in 10.0 mi NNW 16.1 mph - N/A   Clear
11:35 AM 57.2 °F - 41.0 °F 55% 29.61 in 10.0 mi North 18.4 mph - N/A   Clear
11:55 AM 59.0 °F - 41.0 °F 51% 29.61 in 10.0 mi NNW 15.0 mph - N/A   Clear
12:15 PM 59.0 °F - 41.0 °F 51% 29.61 in 10.0 mi North 17.3 mph 21.9 mph N/A   Clear
12:35 PM 60.8 °F - 41.0 °F 48% 29.62 in 10.0 mi North 19.6 mph 24.2 mph N/A   Clear
1:15 PM 57.2 °F - 41.0 °F 55% 29.61 in 10.0 mi NNW 26.5 mph 29.9 mph N/A   Clear
1:35 PM 55.4 °F - 41.0 °F 58% 29.62 in 10.0 mi NNW 23.0 mph 29.9 mph N/A   Clear
2:15 PM 55.4 °F - 41.0 °F 58% 29.64 in 10.0 mi NNW 21.9 mph 27.6 mph N/A   Clear
2:35 PM 55.4 °F - 41.0 °F 58% 29.65 in 10.0 mi NNW 18.4 mph - N/A   Clear
2:55 PM 53.6 °F - 41.0 °F 62% 29.65 in 10.0 mi NNW 20.7 mph 27.6 mph N/A   Clear
3:15 PM 53.6 °F - 41.0 °F 62% 29.66 in 10.0 mi NNW 20.7 mph - N/A   Clear
3:35 PM 53.6 °F - 41.0 °F 62% 29.66 in 10.0 mi NNW 23.0 mph 28.8 mph N/A   Clear
3:55 PM 53.6 °F - 41.0 °F 62% 29.67 in 10.0 mi NNW 20.7 mph 25.3 mph N/A   Clear
4:15 PM 53.6 °F - 41.0 °F 62% 29.69 in 10.0 mi NNW 19.6 mph - N/A   Clear
4:35 PM 51.8 °F - 41.0 °F 67% 29.70 in 10.0 mi NNW 20.7 mph - N/A   Clear
4:55 PM 51.8 °F - 41.0 °F 67% 29.71 in 10.0 mi NNW 18.4 mph - N/A   Clear
5:15 PM 50.0 °F - 39.2 °F 66% 29.72 in 10.0 mi NNW 19.6 mph 27.6 mph N/A   Clear
5:35 PM 48.2 °F - 39.2 °F 71% 29.73 in 10.0 mi NNW 23.0 mph - N/A   Clear
5:55 PM 48.2 °F - 39.2 °F 71% 29.75 in 10.0 mi NNW 21.9 mph 27.6 mph N/A   Clear
6:15 PM 46.4 °F 37.9 °F 37.4 °F 71% 29.77 in 10.0 mi NNW 25.3 mph 31.1 mph N/A   Clear
6:35 PM 44.6 °F 35.5 °F 37.4 °F 76% 29.78 in 10.0 mi NNW 25.3 mph 29.9 mph N/A   Clear
6:55 PM 44.6 °F 36.4 °F 37.4 °F 76% 29.79 in 10.0 mi NNW 20.7 mph - N/A   Clear
7:15 PM 42.8 °F 33.3 °F 37.4 °F 81% 29.80 in 10.0 mi North 24.2 mph 29.9 mph N/A   Scattered Clouds
7:35 PM 42.8 °F 32.9 °F 37.4 °F 81% 29.83 in 10.0 mi NNW 26.5 mph 32.2 mph N/A   Mostly Cloudy
7:55 PM 42.8 °F 32.9 °F 35.6 °F 76% 29.84 in 10.0 mi North 26.5 mph 33.4 mph N/A   Mostly Cloudy
8:15 PM 42.8 °F 32.9 °F 35.6 °F 76% 29.86 in 10.0 mi NNW 26.5 mph 33.4 mph N/A   Overcast
8:35 PM 42.8 °F 33.8 °F 35.6 °F 76% 29.89 in 10.0 mi North 21.9 mph 35.7 mph N/A   Mostly Cloudy
8:55 PM 42.8 °F 33.3 °F 35.6 °F 76% 29.91 in 10.0 mi North 24.2 mph 33.4 mph N/A   Mostly Cloudy
9:15 PM 42.8 °F 33.1 °F 32.0 °F 66% 29.94 in 10.0 mi North 25.3 mph 33.4 mph N/A   Scattered Clouds
9:35 PM 44.6 °F 34.6 °F 32.0 °F 61% 29.97 in 10.0 mi North 31.1 mph 39.1 mph N/A   Mostly Cloudy
9:55 PM 42.8 °F 31.9 °F 32.0 °F 66% 29.97 in 10.0 mi North 32.2 mph 39.1 mph N/A   Overcast
10:15 PM 42.8 °F 32.5 °F 32.0 °F 66% 29.99 in 10.0 mi North 28.8 mph 39.1 mph N/A   Overcast
10:35 PM 41.0 °F 30.5 °F 33.8 °F 76% 29.99 in 10.0 mi North 26.5 mph 34.5 mph N/A Rain Light Rain
11:35 PM 39.2 °F 28.3 °F 35.6 °F 87% 30.04 in 10.0 mi North 25.3 mph 36.8 mph N/A Rain Light Rain
11:55 PM 39.2 °F 27.6 °F 33.8 °F 81% 30.05 in 6.0 mi North 28.8 mph 43.7 mph N/A   Overcast